If you wish to contribute or participate in the discussions about articles you are invited to join SKYbrary as a registered user

 Actions

Budapest/Ferihegy

From SKYbrary Wiki

LHBP
Airport
ICAO: LHBP
Summary
Name Budapest/Ferihegy
Region Europe
Territory Hungary HU.gif
Location Budapest, Hungary
Serving
Coordinates 47° 26' 24.00" N, 19° 15' 42.00" E
Runways
Designator Length Width Surface ROPS
13L/31R 3707 m12,162.074 ft
45 m147.638 ft
CON yes/yes
13R/31L 3010 m9,875.328 ft
45 m147.638 ft
CON yes/yes


METAR
Observation LHBP 111030Z 01005KT 320V070 9999 SCT028 BKN050 15/11 Q1010 NOSIG
Station Budapest / Ferihegy
Date/Time 11 April 2019 10:30:00
Wind direction 10°
Wind speed 05 kts
Lowest cloud amount scattered clouds
Temperature 15°C
Dew point 11°C
Humidity 77%
QNH 1010 hPa
Weather condition n/a

Budapest/Ferihegy Airport

ICAO: LHBP IATA: BUD

Description

International airport serving capital of Hungary.

Climatology

Humid Continental climate (Köppen climate classification Dfb) - Variable weather patterns and a large seasonal temperature variance. Summers are often warm and humid with frequent thunderstorms and winters can be very cold with frequent snowfall and persistent snow cover.

Maps

Terrain

Loading map...

Airport Layout

Loading map...


Accidents & Serious Incidents at or in vicinity of LHBP

None on SKYbrary